Time;durP1;ratioP1;P1;durP2;ratioP2;P2;SDS_P1;SDS_P2;PMS_P1;PMS_P2;Temp;Humidity;BMP_temperature;BMP_pressure;BME280_temperature;BME280_humidity;BME280_pressure;Samples;Min_cycle;Max_cycle;Signal;HPM_P1;HPM_P2
2024/01/15 00:00:54;;;;;;;59.30;22.05;;;-2.60;97.00;;;;;;5103763;28;20043;-91
2024/01/15 00:03:19;;;;;;;63.05;25.17;;;-2.70;97.50;;;;;;5103893;28;20087;-91
2024/01/15 00:05:51;;;;;;;66.45;24.35;;;-2.60;97.60;;;;;;5123794;28;20036;-92
2024/01/15 00:08:19;;;;;;;65.72;23.85;;;-2.60;97.60;;;;;;5124426;28;20083;-90
2024/01/15 00:10:45;;;;;;;64.85;26.80;;;-2.60;98.00;;;;;;5104514;28;20089;-91
2024/01/15 00:13:11;;;;;;;48.72;21.73;;;-2.60;98.10;;;;;;5105944;28;20034;-92
2024/01/15 00:15:36;;;;;;;82.47;28.48;;;-2.60;98.30;;;;;;5124534;28;20055;-91
2024/01/15 00:18:02;;;;;;;70.47;30.60;;;-2.60;98.30;;;;;;5125617;28;20079;-91
2024/01/15 00:20:29;;;;;;;82.28;27.10;;;-2.70;98.50;;;;;;5104761;28;20027;-90
2024/01/15 00:22:54;;;;;;;58.78;26.77;;;-2.70;98.70;;;;;;5105457;28;20027;-90
2024/01/15 00:25:21;;;;;;;73.05;25.17;;;-2.70;99.00;;;;;;5124507;28;20019;-91
2024/01/15 00:27:47;;;;;;;84.25;28.10;;;-2.70;99.10;;;;;;5105225;28;20097;-92
2024/01/15 00:30:13;;;;;;;75.72;27.35;;;-2.70;99.50;;;;;;5117613;28;20101;-91
2024/01/15 00:32:39;;;;;;;80.18;27.00;;;-2.70;99.40;;;;;;5125413;28;20027;-91
2024/01/15 00:35:05;;;;;;;59.72;24.92;;;-2.70;99.70;;;;;;5125489;28;20035;-91
2024/01/15 00:37:31;;;;;;;80.57;31.73;;;-2.60;99.60;;;;;;5143002;28;20023;-91
2024/01/15 00:39:57;;;;;;;71.28;27.52;;;-2.60;99.50;;;;;;5125012;28;20037;-91
2024/01/15 00:42:23;;;;;;;63.45;26.17;;;-2.60;99.60;;;;;;5114550;28;20024;-91
2024/01/15 00:44:49;;;;;;;86.10;27.00;;;-2.70;99.90;;;;;;5133592;28;20023;-88
2024/01/15 00:47:15;;;;;;;64.05;24.38;;;-2.70;99.90;;;;;;5115424;28;20051;-90
2024/01/15 00:49:46;;;;;;;86.80;29.90;;;-2.70;99.90;;;;;;5124315;28;20020;-91
2024/01/15 00:52:12;;;;;;;78.40;29.60;;;-2.70;99.90;;;;;;5119295;28;20028;-91
2024/01/15 00:54:39;;;;;;;74.28;29.80;;;-2.60;99.90;;;;;;5127313;28;20028;-89
2024/01/15 00:57:05;;;;;;;78.90;27.42;;;-2.60;99.90;;;;;;5105530;28;20031;-92
2024/01/15 00:59:31;;;;;;;71.18;28.17;;;-2.60;99.90;;;;;;5107754;28;20054;-90
2024/01/15 01:01:57;;;;;;;73.03;28.95;;;-2.70;99.90;;;;;;5108782;28;20030;-91
2024/01/15 01:04:23;;;;;;;78.63;30.02;;;-2.60;99.90;;;;;;5108433;28;20027;-91
2024/01/15 01:06:49;;;;;;;61.03;23.25;;;-2.60;99.90;;;;;;5127769;28;20415;-91
2024/01/15 01:09:15;;;;;;;76.35;28.85;;;-2.60;99.90;;;;;;5109376;28;20049;-92
2024/01/15 01:11:44;;;;;;;74.97;28.92;;;-2.60;99.90;;;;;;5108445;28;20023;-92
2024/01/15 01:14:11;;;;;;;70.03;24.98;;;-2.70;99.90;;;;;;5108182;28;20077;-92
2024/01/15 01:16:38;;;;;;;57.67;24.73;;;-2.60;99.90;;;;;;5107538;28;20048;-92
2024/01/15 01:19:07;;;;;;;86.40;30.38;;;-2.60;99.90;;;;;;5117736;28;20016;-93
2024/01/15 01:21:34;;;;;;;80.80;26.63;;;-2.60;99.90;;;;;;5105510;28;20024;-91
2024/01/15 01:24:08;;;;;;;49.40;22.10;;;-2.60;99.80;;;;;;5106761;28;20020;-92
2024/01/15 01:26:34;;;;;;;69.28;26.05;;;-2.60;99.80;;;;;;5105774;28;20016;-90
2024/01/15 01:29:03;;;;;;;70.25;27.38;;;-2.60;99.90;;;;;;5105622;28;20024;-92
2024/01/15 01:31:29;;;;;;;75.70;24.90;;;-2.60;99.90;;;;;;5121283;28;20028;-92
2024/01/15 01:33:55;;;;;;;67.82;25.90;;;-2.60;99.90;;;;;;5124903;28;20038;-92
2024/01/15 01:36:22;;;;;;;81.22;29.67;;;-2.60;99.90;;;;;;5124995;28;20020;-91
2024/01/15 01:38:48;;;;;;;77.45;32.33;;;-2.60;99.90;;;;;;5124280;28;20073;-92
2024/01/15 01:41:18;;;;;;;63.03;27.40;;;-2.60;99.90;;;;;;5107682;28;20059;-92
2024/01/15 01:43:44;;;;;;;55.78;22.45;;;-2.60;99.90;;;;;;5108804;28;20027;-92
2024/01/15 01:46:13;;;;;;;55.20;26.10;;;-2.60;99.90;;;;;;5107467;28;20068;-91
2024/01/15 01:48:40;;;;;;;80.90;28.13;;;-2.50;99.90;;;;;;5107775;28;20031;-90
2024/01/15 01:51:08;;;;;;;73.38;24.83;;;-2.50;99.90;;;;;;5076406;28;20043;-92
2024/01/15 01:53:36;;;;;;;73.85;27.85;;;-2.50;99.90;;;;;;5107219;27;20041;-91
2024/01/15 01:56:03;;;;;;;67.97;22.77;;;-2.60;99.90;;;;;;5146710;27;20106;-90
2024/01/15 01:58:32;;;;;;;60.00;22.58;;;-2.50;99.90;;;;;;5118267;28;20049;-92
2024/01/15 02:00:59;;;;;;;73.20;25.35;;;-2.50;99.90;;;;;;5107889;28;20451;-91
2024/01/15 02:03:27;;;;;;;57.85;24.92;;;-2.50;99.90;;;;;;5107179;28;20034;-90
2024/01/15 02:05:54;;;;;;;74.93;25.38;;;-2.50;99.90;;;;;;5106030;28;20026;-91
2024/01/15 02:08:20;;;;;;;78.18;27.48;;;-2.50;99.90;;;;;;5125388;28;20031;-91
2024/01/15 02:10:46;;;;;;;66.35;26.35;;;-2.40;99.90;;;;;;5105678;28;20089;-90
2024/01/15 02:13:13;;;;;;;73.50;24.35;;;-2.50;99.90;;;;;;5125067;28;20095;-90
2024/01/15 02:15:40;;;;;;;64.00;20.05;;;-2.40;99.90;;;;;;5125424;28;20378;-90
2024/01/15 02:18:08;;;;;;;64.88;24.10;;;-2.40;99.90;;;;;;5109269;28;20027;-90
2024/01/15 02:20:34;;;;;;;77.60;25.60;;;-2.40;99.90;;;;;;5125679;28;20026;-91
2024/01/15 02:23:11;;;;;;;60.95;24.95;;;-2.30;99.90;;;;;;5107554;28;20020;-90
2024/01/15 02:25:40;;;;;;;70.13;24.38;;;-2.30;99.80;;;;;;5125166;28;20020;-91
2024/01/15 02:28:09;;;;;;;60.65;26.27;;;-2.30;99.90;;;;;;5125155;28;20065;-91
2024/01/15 02:30:41;;;;;;;68.70;23.42;;;-2.30;99.90;;;;;;5107139;28;20028;-92
2024/01/15 02:33:12;;;;;;;67.70;22.15;;;-2.30;99.80;;;;;;5125198;28;20429;-93
2024/01/15 02:35:42;;;;;;;66.95;24.15;;;-2.30;99.70;;;;;;5107113;28;20028;-92
2024/01/15 02:38:09;;;;;;;54.78;20.75;;;-2.40;99.80;;;;;;5108089;28;20019;-92
2024/01/15 02:40:36;;;;;;;51.63;23.75;;;-2.30;99.90;;;;;;5106705;28;20020;-90
2024/01/15 02:43:04;;;;;;;74.55;25.35;;;-2.30;99.90;;;;;;5105495;28;20028;-91
2024/01/15 02:45:30;;;;;;;47.65;21.02;;;-2.30;99.90;;;;;;5105781;28;20016;-92
2024/01/15 02:47:56;;;;;;;60.30;23.48;;;-2.30;99.80;;;;;;5116671;28;20046;-90
2024/01/15 02:50:22;;;;;;;65.95;22.08;;;-2.30;99.80;;;;;;5085148;28;20024;-92
2024/01/15 02:52:54;;;;;;;63.53;23.05;;;-2.30;99.90;;;;;;5104671;28;20053;-90
2024/01/15 02:55:20;;;;;;;66.43;21.50;;;-2.30;99.90;;;;;;5104933;28;20052;-91
2024/01/15 02:57:48;;;;;;;72.78;23.45;;;-2.30;99.60;;;;;;5122876;28;20035;-92
2024/01/15 03:00:15;;;;;;;60.95;23.15;;;-2.20;99.70;;;;;;5124156;28;20020;-90
2024/01/15 03:02:43;;;;;;;74.15;25.20;;;-2.20;99.50;;;;;;5105816;28;20054;-92
2024/01/15 03:05:12;;;;;;;59.92;21.15;;;-2.30;99.80;;;;;;5124107;28;20030;-92
2024/01/15 03:07:38;;;;;;;;;;;-2.20;99.70;;;;;;5142249;27;20052;-91
2024/01/15 03:10:08;;;;;;;64.72;23.52;;;-2.30;99.90;;;;;;5126979;27;19907;-91
2024/01/15 03:12:34;;;;;;;58.92;21.40;;;-2.20;99.90;;;;;;5118440;28;20035;-91
2024/01/15 03:15:02;;;;;;;56.70;20.23;;;-2.20;99.90;;;;;;5124154;28;20112;-91
2024/01/15 03:17:33;;;;;;;62.92;20.45;;;-2.20;99.90;;;;;;5105545;28;20027;-91
2024/01/15 03:20:03;;;;;;;49.28;19.95;;;-2.20;99.90;;;;;;5105155;28;20027;-92
2024/01/15 03:22:30;;;;;;;58.83;21.13;;;-2.20;99.90;;;;;;5104630;28;20042;-92
2024/01/15 03:24:59;;;;;;;59.22;23.38;;;-2.20;99.90;;;;;;5105715;28;20051;-92
2024/01/15 03:27:25;;;;;;;57.53;24.17;;;-2.20;99.80;;;;;;5107371;28;20027;-93
2024/01/15 03:29:53;;;;;;;60.72;22.92;;;-2.20;99.80;;;;;;5108799;28;20035;-91
2024/01/15 03:32:19;;;;;;;66.25;26.85;;;-2.20;99.80;;;;;;5127052;28;20027;-91
2024/01/15 03:34:48;;;;;;;60.47;23.35;;;-2.20;99.90;;;;;;5105396;28;20044;-92
2024/01/15 03:37:14;;;;;;;61.20;23.27;;;-2.20;99.90;;;;;;5119450;28;20028;-92
2024/01/15 03:39:40;;;;;;;70.18;23.52;;;-2.10;99.90;;;;;;5084457;28;20062;-92
2024/01/15 03:42:06;;;;;;;51.90;22.65;;;-2.10;99.90;;;;;;5092113;28;20016;-90
2024/01/15 03:44:32;;;;;;;42.03;20.17;;;-2.10;99.90;;;;;;5110441;28;20030;-91
2024/01/15 03:46:58;;;;;;;65.95;23.23;;;-2.10;99.90;;;;;;5085127;28;20035;-91
2024/01/15 03:49:25;;;;;;;55.90;22.77;;;-2.00;99.90;;;;;;5102660;28;20036;-90
2024/01/15 03:51:53;;;;;;;71.47;24.10;;;-2.00;99.90;;;;;;5112609;28;20023;-93
2024/01/15 03:54:20;;;;;;;48.17;20.00;;;-2.10;99.90;;;;;;5104369;28;20031;-91
2024/01/15 03:56:46;;;;;;;60.30;21.17;;;-2.10;99.90;;;;;;5122541;28;20032;-90
2024/01/15 03:59:12;;;;;;;68.07;25.63;;;-2.10;99.90;;;;;;5104779;28;20038;-91
2024/01/15 04:01:38;;;;;;;54.95;22.13;;;-2.10;99.90;;;;;;5084906;28;20024;-90
2024/01/15 04:04:04;;;;;;;71.03;26.73;;;-2.10;99.90;;;;;;5084541;28;20020;-92
2024/01/15 04:06:30;;;;;;;62.97;20.42;;;-2.10;99.90;;;;;;5084214;28;20046;-90
2024/01/15 04:08:56;;;;;;;54.90;22.67;;;-2.10;99.90;;;;;;5103700;28;20035;-91
2024/01/15 04:11:22;;;;;;;62.55;25.23;;;-2.10;99.90;;;;;;5101987;28;20039;-90
2024/01/15 04:13:48;;;;;;;73.13;25.15;;;-2.10;99.90;;;;;;5102314;28;20036;-91
2024/01/15 04:16:14;;;;;;;63.63;21.73;;;-2.10;99.90;;;;;;5102957;28;20043;-92
2024/01/15 04:18:40;;;;;;;68.00;23.30;;;-2.00;99.90;;;;;;5102435;28;20039;-92
2024/01/15 04:21:09;;;;;;;55.65;24.05;;;-2.10;99.90;;;;;;5101217;28;20023;-91
2024/01/15 04:23:35;;;;;;;70.90;24.27;;;-2.00;99.90;;;;;;5124462;28;20079;-90
2024/01/15 04:26:01;;;;;;;65.15;22.55;;;-2.00;99.90;;;;;;5108664;28;20045;-92
2024/01/15 04:28:27;;;;;;;64.55;23.08;;;-2.00;99.90;;;;;;5109098;28;20040;-91
2024/01/15 04:30:53;;;;;;;67.28;24.48;;;-2.00;99.90;;;;;;5135615;27;20011;-96
2024/01/15 04:33:25;;;;;;;71.38;25.92;;;-1.90;99.90;;;;;;5375699;22;20096;-95
2024/01/15 04:35:50;;;;;;;65.97;25.02;;;-2.00;99.90;;;;;;5121345;28;20013;-92
2024/01/15 04:38:16;;;;;;;66.50;23.55;;;-2.00;99.90;;;;;;5120575;28;20032;-95
2024/01/15 04:40:42;;;;;;;63.80;26.52;;;-2.00;99.90;;;;;;5103206;28;20024;-95
2024/01/15 04:43:22;;;;;;;67.60;26.02;;;-2.00;99.90;;;;;;5101808;23;20197;-93
2024/01/15 04:45:48;;;;;;;62.17;27.52;;;-2.00;99.90;;;;;;5077255;28;20025;-91
2024/01/15 04:48:27;;;;;;;59.70;22.48;;;-2.00;99.90;;;;;;5061137;28;20047;-92
2024/01/15 04:50:53;;;;;;;63.95;23.85;;;-2.00;99.90;;;;;;5062447;28;20036;-92
2024/01/15 04:53:18;;;;;;;63.88;24.70;;;-2.00;99.90;;;;;;5062327;28;20029;-93
2024/01/15 04:55:44;;;;;;;68.68;21.98;;;-2.00;99.90;;;;;;5054056;28;20396;-92
2024/01/15 04:58:10;;;;;;;72.50;24.63;;;-2.00;99.90;;;;;;5060126;28;20502;-93
2024/01/15 05:00:39;;;;;;;56.38;26.58;;;-2.00;99.90;;;;;;5058514;28;20050;-92
2024/01/15 05:03:07;;;;;;;56.28;25.10;;;-2.00;99.90;;;;;;5064550;28;20025;-93
2024/01/15 05:05:33;;;;;;;68.55;27.13;;;-1.90;99.90;;;;;;5056534;28;20052;-91
2024/01/15 05:07:59;;;;;;;63.08;26.77;;;-1.90;99.90;;;;;;5060806;28;20526;-92
2024/01/15 05:10:24;;;;;;;71.38;28.90;;;-1.90;99.90;;;;;;5059717;28;20029;-92
2024/01/15 05:12:50;;;;;;;68.10;28.42;;;-1.90;99.90;;;;;;5063164;28;20029;-93
2024/01/15 05:15:15;;;;;;;69.45;24.88;;;-1.90;99.90;;;;;;5060812;28;20039;-92
2024/01/15 05:17:41;;;;;;;55.83;24.52;;;-1.90;99.90;;;;;;5059655;28;20035;-94
2024/01/15 05:20:07;;;;;;;61.80;24.35;;;-1.90;99.90;;;;;;5063656;28;20021;-92
2024/01/15 05:22:33;;;;;;;60.10;23.20;;;-1.90;99.90;;;;;;5059988;28;20017;-93
2024/01/15 05:24:59;;;;;;;73.20;27.38;;;-1.90;99.90;;;;;;5059553;28;20056;-92
2024/01/15 05:27:25;;;;;;;73.07;24.52;;;-1.90;99.90;;;;;;5053967;28;20518;-91
2024/01/15 05:29:50;;;;;;;73.60;25.80;;;-1.90;99.90;;;;;;5055891;28;20029;-92
2024/01/15 05:32:16;;;;;;;69.10;26.42;;;-1.90;99.90;;;;;;5056727;28;20029;-92
2024/01/15 05:34:42;;;;;;;75.55;27.50;;;-1.90;99.90;;;;;;5051286;28;20024;-91
2024/01/15 05:37:08;;;;;;;53.40;24.70;;;-1.90;99.90;;;;;;5051643;28;20029;-92
2024/01/15 05:39:33;;;;;;;69.82;26.42;;;-1.90;99.90;;;;;;5058322;28;20108;-92
2024/01/15 05:42:00;;;;;;;88.50;32.60;;;-1.90;99.90;;;;;;5060606;28;20021;-92
2024/01/15 05:44:26;;;;;;;71.80;26.17;;;-1.90;99.90;;;;;;5055054;28;20037;-91
2024/01/15 05:46:51;;;;;;;66.03;28.05;;;-1.90;99.90;;;;;;5062422;28;20020;-94
2024/01/15 05:49:20;;;;;;;72.93;26.13;;;-1.90;99.90;;;;;;5075932;28;20463;-94
2024/01/15 05:51:51;;;;;;;75.82;25.02;;;-1.90;99.90;;;;;;5081112;28;20025;-94
2024/01/15 05:54:19;;;;;;;66.00;26.20;;;-1.90;99.90;;;;;;5069380;28;20029;-94
2024/01/15 05:56:45;;;;;;;66.55;27.27;;;-1.90;99.90;;;;;;5077235;28;20074;-94
2024/01/15 05:59:35;;;;;;;72.00;27.52;;;-1.90;99.90;;;;;;5066733;28;20017;-92
2024/01/15 06:02:04;;;;;;;68.45;27.73;;;-1.90;99.90;;;;;;5056870;28;20056;-94
2024/01/15 06:04:33;;;;;;;68.43;27.00;;;-1.90;99.90;;;;;;5062363;28;20079;-93
2024/01/15 06:07:03;;;;;;;72.25;28.13;;;-1.90;99.90;;;;;;5062967;28;20103;-94
2024/01/15 06:10:05;;;;;;;81.22;28.75;;;-1.90;99.90;;;;;;5058713;28;20067;-95
2024/01/15 06:12:32;;;;;;;83.10;31.73;;;-1.90;99.90;;;;;;5053532;28;20044;-92
2024/01/15 06:14:57;;;;;;;72.70;27.45;;;-1.90;99.90;;;;;;5059317;28;20067;-92
2024/01/15 06:17:23;;;;;;;76.60;28.45;;;-1.90;99.90;;;;;;5060988;28;20028;-93
2024/01/15 06:19:49;;;;;;;73.15;27.02;;;-1.90;99.90;;;;;;5059814;28;20025;-92
2024/01/15 06:22:15;;;;;;;73.13;31.17;;;-1.90;99.90;;;;;;5059123;28;20036;-93
2024/01/15 06:24:42;;;;;;;74.88;30.98;;;-1.90;99.90;;;;;;5047094;28;20022;-92
2024/01/15 06:27:08;;;;;;;88.30;33.53;;;-1.90;99.90;;;;;;5066376;28;20112;-93
2024/01/15 06:29:37;;;;;;;63.00;27.55;;;-1.90;99.90;;;;;;5054472;28;20051;-92
2024/01/15 06:32:06;;;;;;;78.18;29.33;;;-1.90;99.90;;;;;;5051640;28;20116;-92
2024/01/15 06:34:32;;;;;;;86.13;32.63;;;-1.90;99.90;;;;;;5047905;28;20091;-94
2024/01/15 06:36:57;;;;;;;76.82;28.27;;;-1.90;99.90;;;;;;5049384;28;20064;-94
2024/01/15 06:39:23;;;;;;;76.47;29.08;;;-1.90;99.90;;;;;;5057983;28;20025;-94
2024/01/15 06:41:49;;;;;;;88.72;31.77;;;-1.90;99.90;;;;;;5058139;28;20081;-94
2024/01/15 06:44:54;;;;;;;73.65;29.70;;;-1.90;99.90;;;;;;5057821;28;20047;-93
2024/01/15 06:47:20;;;;;;;83.20;30.30;;;-1.90;99.90;;;;;;5332124;22;20047;-95
2024/01/15 06:49:50;;;;;;;72.68;31.65;;;-1.90;99.90;;;;;;5109936;28;20016;-94
2024/01/15 06:52:18;;;;;;;83.38;34.55;;;-1.90;99.90;;;;;;5114220;28;20024;-95
2024/01/15 06:54:44;;;;;;;74.10;29.02;;;-1.90;99.90;;;;;;5112452;28;20080;-94
2024/01/15 06:57:12;;;;;;;72.40;30.10;;;-1.90;99.90;;;;;;5115360;28;20016;-96
2024/01/15 06:59:38;;;;;;;79.13;31.67;;;-1.90;99.90;;;;;;5114111;28;20029;-93
2024/01/15 07:02:05;;;;;;;95.28;31.77;;;-1.80;99.90;;;;;;5113441;28;20060;-95
2024/01/15 07:04:31;;;;;;;71.55;26.90;;;-1.80;99.90;;;;;;5115048;28;20072;-96
2024/01/15 07:06:57;;;;;;;80.95;33.08;;;-1.80;99.90;;;;;;5115697;28;20058;-94
2024/01/15 07:09:23;;;;;;;83.38;34.63;;;-1.80;99.90;;;;;;5112616;28;20122;-95
2024/01/15 07:11:51;;;;;;;79.05;26.75;;;-1.80;99.90;;;;;;5115262;27;20379;-95
2024/01/15 07:14:17;;;;;;;83.07;31.65;;;-1.80;99.90;;;;;;5181018;22;20023;-96
2024/01/15 07:16:49;;;;;;;77.53;30.85;;;-1.80;99.90;;;;;;5128027;27;20028;-94
2024/01/15 07:19:14;;;;;;;75.38;29.25;;;-1.80;99.90;;;;;;5124233;27;20032;-93
2024/01/15 07:21:42;;;;;;;72.72;30.17;;;-1.70;99.90;;;;;;5130431;27;20087;-94
2024/01/15 07:24:09;;;;;;;79.10;30.98;;;-1.70;99.90;;;;;;5126254;27;20083;-96
2024/01/15 07:26:37;;;;;;;62.10;26.02;;;-1.70;99.90;;;;;;5145805;27;20011;-96
2024/01/15 07:29:04;;;;;;;69.43;29.90;;;-1.70;99.90;;;;;;5100992;28;20033;-92
2024/01/15 07:31:29;;;;;;;73.88;29.63;;;-1.70;99.90;;;;;;5094455;28;20013;-91
2024/01/15 07:33:55;;;;;;;67.57;26.77;;;-1.70;99.90;;;;;;5093107;28;20031;-91
2024/01/15 07:40:10;;;;;;;66.75;27.45;;;-1.70;99.90;;;;;;5085559;28;20046;-91
2024/01/15 08:25:02;;;;;;;55.13;22.58;;;-1.30;99.90;;;;;;5083193;28;20094;-91
2024/01/15 08:28:08;;;;;;;55.83;26.35;;;-1.30;99.90;;;;;;5067760;28;20040;-92
2024/01/15 08:31:09;;;;;;;70.15;25.88;;;-1.30;99.90;;;;;;5052309;28;20037;-90
2024/01/15 08:33:56;;;;;;;78.90;27.33;;;-1.20;99.90;;;;;;5066960;28;20013;-93
2024/01/15 08:36:30;;;;;;;66.93;28.48;;;-1.30;99.90;;;;;;5075378;28;20079;-90
2024/01/15 08:45:23;;;;;;;71.07;28.75;;;-1.20;99.90;;;;;;5566923;22;20063;-94
2024/01/15 08:47:53;;;;;;;57.40;27.85;;;-1.10;99.90;;;;;;5091952;28;20116;-95
2024/01/15 08:54:08;;;;;;;56.33;25.00;;;-1.10;99.90;;;;;;5005104;28;20038;-96
2024/01/15 08:57:24;;;;;;;;;;;;;;;;;;;;;
2024/01/15 09:00:47;;;;;;;;;;;;;;;;;;;;;
2024/01/15 09:06:53;;;;;;;60.75;24.15;;;-1.00;99.90;;;;;;5042003;28;20038;-95
2024/01/15 09:10:13;;;;;;;58.78;25.45;;;-1.00;99.90;;;;;;5044111;28;20032;-94
2024/01/15 09:16:02;;;;;;;54.78;23.85;;;-0.80;99.90;;;;;;5331283;22;20091;-94
2024/01/15 09:22:10;;;;;;;57.28;24.75;;;-0.80;99.90;;;;;;5039993;28;20040;-95
2024/01/15 09:38:24;;;;;;;51.67;19.05;;;-0.70;99.90;;;;;;4927627;29;20368;-94
2024/01/15 09:41:17;;;;;;;56.92;26.15;;;-0.60;99.80;;;;;;4922425;29;20122;-94
2024/01/15 09:47:12;;;;;;;55.78;23.83;;;-0.60;99.80;;;;;;5073554;23;20048;-90
2024/01/15 09:50:23;;;;;;;61.63;25.92;;;-0.60;99.60;;;;;;5084897;28;20037;-90
2024/01/15 09:53:04;;;;;;;56.08;23.73;;;-0.50;99.70;;;;;;5085676;28;20028;-91
2024/01/15 09:56:05;;;;;;;55.78;24.45;;;-0.50;99.90;;;;;;5087595;28;20028;-90
2024/01/15 09:59:00;;;;;;;59.67;22.73;;;-0.50;99.90;;;;;;5078747;28;20048;-92
2024/01/15 10:03:58;;;;;;;56.15;25.88;;;-0.50;99.90;;;;;;5007066;28;20046;-91
2024/01/15 10:06:47;;;;;;;58.60;24.92;;;-0.50;99.90;;;;;;5008536;28;20038;-90
2024/01/15 10:09:17;;;;;;;61.78;26.08;;;-0.50;99.90;;;;;;4991500;28;20026;-90
2024/01/15 10:11:48;;;;;;;56.40;24.15;;;-0.50;99.90;;;;;;4991701;28;20042;-89
2024/01/15 10:14:41;;;;;;;61.75;26.35;;;-0.50;99.90;;;;;;4988683;28;20022;-91
2024/01/15 10:17:21;;;;;;;58.35;24.55;;;-0.50;99.90;;;;;;5003418;28;20092;-90
2024/01/15 10:20:00;;;;;;;57.58;24.58;;;-0.50;99.90;;;;;;5005530;28;20026;-92
2024/01/15 10:22:29;;;;;;;70.80;28.60;;;-0.50;99.90;;;;;;4989539;28;20183;-90
2024/01/15 10:25:02;;;;;;;61.03;23.73;;;-0.50;99.90;;;;;;4979698;28;20034;-90
2024/01/15 10:27:31;;;;;;;69.07;29.55;;;-0.50;99.90;;;;;;4970769;28;20104;-90
2024/01/15 10:30:07;;;;;;;64.55;26.73;;;-0.60;99.90;;;;;;4969417;28;20033;-91
2024/01/15 10:32:33;;;;;;;60.33;26.95;;;-0.60;99.90;;;;;;4988851;28;20057;-91
2024/01/15 10:35:01;;;;;;;56.80;21.17;;;-0.60;99.90;;;;;;5014319;28;20026;-91
2024/01/15 10:37:35;;;;;;;61.03;28.38;;;-0.60;99.90;;;;;;4979769;28;20039;-91
2024/01/15 10:40:09;;;;;;;58.70;25.27;;;-0.50;99.90;;;;;;5012472;28;20033;-91
2024/01/15 10:42:43;;;;;;;52.47;22.25;;;-0.50;99.90;;;;;;4990138;28;20027;-91
2024/01/15 10:45:09;;;;;;;62.78;23.52;;;-0.50;99.90;;;;;;4974406;28;20042;-90
2024/01/15 10:47:40;;;;;;;50.60;22.98;;;-0.50;99.90;;;;;;5007620;28;20018;-90
2024/01/15 10:50:12;;;;;;;47.17;21.50;;;-0.50;99.90;;;;;;5007422;28;20034;-90
2024/01/15 10:52:45;;;;;;;66.97;25.70;;;-0.50;99.90;;;;;;4999515;28;20074;-92
2024/01/15 10:55:11;;;;;;;51.45;21.80;;;-0.50;99.90;;;;;;4993194;28;20026;-91
2024/01/15 10:57:38;;;;;;;60.30;23.92;;;-0.50;99.90;;;;;;5006909;28;20049;-89
2024/01/15 11:00:06;;;;;;;57.90;23.92;;;-0.40;99.90;;;;;;4989431;28;20049;-90
2024/01/15 11:02:36;;;;;;;64.10;27.83;;;-0.50;99.90;;;;;;4995719;28;20049;-90
2024/01/15 11:05:05;;;;;;;69.47;27.75;;;-0.50;99.90;;;;;;4981777;28;20048;-89
2024/01/15 11:07:41;;;;;;;71.32;24.95;;;-0.50;99.90;;;;;;4968297;28;20035;-90
2024/01/15 11:10:27;;;;;;;72.68;26.55;;;-0.50;99.90;;;;;;4981874;28;20103;-91
2024/01/15 11:12:55;;;;;;;70.43;25.55;;;-0.50;99.90;;;;;;4966416;28;20051;-91
2024/01/15 11:15:28;;;;;;;72.13;27.63;;;-0.40;99.90;;;;;;5005071;28;20037;-92
2024/01/15 11:18:00;;;;;;;72.45;26.60;;;-0.40;99.90;;;;;;5006546;28;20030;-93
2024/01/15 11:20:27;;;;;;;70.45;30.60;;;-0.50;99.90;;;;;;5010351;28;20022;-90
2024/01/15 11:22:53;;;;;;;50.92;23.00;;;-0.50;99.90;;;;;;5008570;28;20026;-90
2024/01/15 11:25:20;;;;;;;66.28;24.88;;;-0.40;99.90;;;;;;5008329;28;20027;-92
2024/01/15 11:27:54;;;;;;;74.68;26.02;;;-0.40;99.90;;;;;;5006675;28;20039;-90
2024/01/15 11:30:25;;;;;;;61.60;24.75;;;-0.40;99.90;;;;;;5006464;28;20489;-91
2024/01/15 11:32:52;;;;;;;76.45;28.27;;;-0.50;99.90;;;;;;5010155;28;20030;-93
2024/01/15 11:35:21;;;;;;;65.32;25.73;;;-0.40;99.90;;;;;;5006853;28;20034;-92
2024/01/15 11:37:54;;;;;;;59.28;23.20;;;-0.40;99.90;;;;;;5008229;28;20069;-91
2024/01/15 11:40:37;;;;;;;57.42;26.33;;;-0.40;99.90;;;;;;4991053;28;20026;-85
2024/01/15 11:43:04;;;;;;;63.35;27.77;;;-0.40;99.90;;;;;;4974122;28;20094;-87
2024/01/15 11:45:30;;;;;;;56.33;24.35;;;-0.20;99.90;;;;;;4981510;28;20022;-92
2024/01/15 11:48:16;;;;;;;64.78;25.17;;;-0.20;99.90;;;;;;4983043;28;20103;-92
2024/01/15 11:50:50;;;;;;;57.45;21.70;;;-0.20;99.90;;;;;;4981140;28;20047;-92
2024/01/15 11:53:28;;;;;;;51.25;19.83;;;-0.20;99.90;;;;;;4981766;28;20074;-91
2024/01/15 11:55:58;;;;;;;65.25;24.73;;;-0.20;99.90;;;;;;4982022;28;20430;-93
2024/01/15 11:58:25;;;;;;;49.00;20.92;;;-0.20;99.90;;;;;;4982768;28;20089;-91
2024/01/15 12:00:52;;;;;;;51.38;21.98;;;-0.20;99.90;;;;;;4985548;28;20030;-91
2024/01/15 12:03:26;;;;;;;51.92;22.27;;;-0.10;99.90;;;;;;4990198;28;20026;-93
2024/01/15 12:05:55;;;;;;;52.92;23.27;;;0.00;99.90;;;;;;5004868;28;20117;-92
2024/01/15 12:08:25;;;;;;;57.83;21.80;;;-0.10;99.90;;;;;;4991418;28;20089;-92
2024/01/15 12:10:51;;;;;;;53.45;21.73;;;-0.10;99.90;;;;;;4998845;28;20026;-93
2024/01/15 12:13:19;;;;;;;47.72;20.48;;;-0.10;99.90;;;;;;5002894;28;20037;-92
2024/01/15 12:15:48;;;;;;;48.90;22.58;;;-0.10;99.90;;;;;;5015542;28;20037;-91
2024/01/15 12:18:15;;;;;;;51.80;19.92;;;-0.10;99.90;;;;;;4988858;28;20117;-91
2024/01/15 12:20:46;;;;;;;49.65;22.25;;;-0.10;99.90;;;;;;4975895;28;20045;-91
2024/01/15 12:23:14;;;;;;;45.72;19.65;;;-0.10;99.90;;;;;;4996643;28;20486;-92
2024/01/15 12:25:42;;;;;;;47.53;20.73;;;-0.10;99.90;;;;;;5006644;28;20058;-92
2024/01/15 12:28:11;;;;;;;43.42;20.98;;;-0.10;99.90;;;;;;4997793;28;20027;-90
2024/01/15 12:30:39;;;;;;;42.90;20.10;;;0.00;99.90;;;;;;4982745;28;20026;-89
2024/01/15 12:33:09;;;;;;;48.42;21.23;;;0.00;99.90;;;;;;4987330;28;20066;-92
2024/01/15 12:35:39;;;;;;;52.67;21.65;;;0.00;99.90;;;;;;4984670;28;20091;-92
2024/01/15 12:38:08;;;;;;;50.00;20.42;;;0.00;99.90;;;;;;5002299;28;20050;-93
2024/01/15 12:40:34;;;;;;;39.95;19.75;;;0.10;99.90;;;;;;5007328;28;20128;-95
2024/01/15 12:43:01;;;;;;;45.33;20.48;;;0.10;99.90;;;;;;4993368;28;20481;-92
2024/01/15 12:45:27;;;;;;;43.50;18.52;;;0.10;99.90;;;;;;4982548;28;20035;-93
2024/01/15 12:47:56;;;;;;;32.92;17.75;;;0.20;99.90;;;;;;4984155;28;20267;-92
2024/01/15 12:50:25;;;;;;;34.90;19.63;;;0.30;99.90;;;;;;4981786;28;20089;-93
2024/01/15 12:52:51;;;;;;;36.20;17.48;;;0.30;99.90;;;;;;4988418;28;20042;-92
2024/01/15 12:55:17;;;;;;;35.90;17.83;;;0.30;99.90;;;;;;4987120;28;20440;-92
2024/01/15 12:57:43;;;;;;;34.63;17.52;;;0.40;99.90;;;;;;4990312;28;20527;-92
2024/01/15 13:00:12;;;;;;;39.08;16.05;;;0.30;99.90;;;;;;4989711;28;20049;-93
2024/01/15 13:02:41;;;;;;;36.72;16.50;;;0.40;99.90;;;;;;4985193;28;20043;-93
2024/01/15 13:05:10;;;;;;;37.78;15.85;;;0.40;99.90;;;;;;4984208;28;20082;-93
2024/01/15 13:07:37;;;;;;;33.70;15.60;;;0.40;99.90;;;;;;4986430;28;20061;-93
2024/01/15 13:10:06;;;;;;;31.70;16.23;;;0.40;99.90;;;;;;4982843;28;20022;-93
2024/01/15 13:12:33;;;;;;;32.17;15.98;;;0.40;99.90;;;;;;4978225;28;20035;-93
2024/01/15 13:14:58;;;;;;;28.92;14.60;;;0.50;99.90;;;;;;4980868;28;20115;-93
2024/01/15 13:17:24;;;;;;;30.48;15.40;;;0.50;99.90;;;;;;4980930;28;20110;-92
2024/01/15 13:19:50;;;;;;;28.35;15.38;;;0.50;99.90;;;;;;4978437;28;20022;-91
2024/01/15 13:22:16;;;;;;;30.05;15.35;;;0.50;99.90;;;;;;4981833;28;20102;-92
2024/01/15 13:24:42;;;;;;;26.50;13.48;;;0.50;99.90;;;;;;4983078;28;20192;-92
2024/01/15 13:27:08;;;;;;;34.55;15.50;;;0.50;99.90;;;;;;4977793;28;20606;-94
2024/01/15 13:29:34;;;;;;;30.17;15.45;;;0.50;99.90;;;;;;4979944;28;20094;-91
2024/01/15 13:32:00;;;;;;;36.65;15.95;;;0.60;99.90;;;;;;4981232;28;20030;-93
2024/01/15 13:34:25;;;;;;;31.33;14.77;;;0.60;99.90;;;;;;4980634;28;20037;-91
2024/01/15 13:36:53;;;;;;;37.38;18.42;;;0.60;99.90;;;;;;4979277;28;20744;-92
2024/01/15 13:39:20;;;;;;;29.85;15.02;;;0.60;99.90;;;;;;4980413;28;20026;-92
2024/01/15 13:41:49;;;;;;;33.78;16.25;;;0.50;99.90;;;;;;4982106;28;20026;-93
2024/01/15 13:44:15;;;;;;;34.67;15.27;;;0.50;99.90;;;;;;4980203;28;20046;-95
2024/01/15 13:46:41;;;;;;;36.05;17.50;;;0.50;99.90;;;;;;4981725;28;20034;-91
2024/01/15 13:49:09;;;;;;;35.72;16.00;;;0.50;99.90;;;;;;4983624;28;20045;-92
2024/01/15 13:51:35;;;;;;;34.45;16.77;;;0.40;99.90;;;;;;4987822;28;20034;-94
2024/01/15 13:54:01;;;;;;;35.75;17.98;;;0.50;99.90;;;;;;4985230;28;20026;-91
2024/01/15 13:56:31;;;;;;;33.38;14.50;;;0.50;99.90;;;;;;4983181;28;20035;-92
2024/01/15 13:58:59;;;;;;;25.30;14.55;;;0.50;99.90;;;;;;4982300;28;20031;-92
2024/01/15 14:01:26;;;;;;;36.60;15.30;;;0.50;99.90;;;;;;4976961;28;20038;-91
2024/01/15 14:03:53;;;;;;;38.85;17.20;;;0.50;99.90;;;;;;4981650;28;20094;-93
2024/01/15 14:06:19;;;;;;;31.08;14.70;;;0.60;99.90;;;;;;4981988;28;20051;-92
2024/01/15 14:08:44;;;;;;;32.47;16.90;;;0.60;99.90;;;;;;4982816;28;20106;-92